createdAt,value
2019-04-23T00:01:29.906Z,5.10
2019-04-23T00:03:52.743Z,4.50
2019-04-23T00:06:30.142Z,5.03
2019-04-23T00:14:02.773Z,5.17
2019-04-23T00:16:36.381Z,5.20
2019-04-23T00:18:59.443Z,4.90
2019-04-23T00:21:40.502Z,5.03
2019-04-23T00:24:53.335Z,5.17
2019-04-23T00:27:06.596Z,5.50
2019-04-23T00:29:36.748Z,5.43
2019-04-23T00:31:59.628Z,5.47
2019-04-23T00:34:33.342Z,5.30
2019-04-23T00:37:01.687Z,4.77
2019-04-23T00:39:38.433Z,5.07
2019-04-23T00:42:10.369Z,5.13
2019-04-23T00:44:40.351Z,5.03
2019-04-23T00:47:06.687Z,5.57
2019-04-23T00:49:32.202Z,5.43
2019-04-23T00:52:08.751Z,5.27
2019-04-23T00:54:35.716Z,5.87
2019-04-23T00:57:07.315Z,5.47
2019-04-23T00:59:38.723Z,5.10
2019-04-23T01:02:01.133Z,5.90
2019-04-23T01:04:31.693Z,5.73
2019-04-23T01:07:04.343Z,5.40
2019-04-23T01:09:40.802Z,5.60
2019-04-23T01:12:07.446Z,5.30
2019-04-23T01:14:32.595Z,5.30
2019-04-23T01:17:11.301Z,5.70
2019-04-23T01:19:44.440Z,5.80
2019-04-23T01:21:55.746Z,5.53
2019-04-23T01:24:32.469Z,5.60
2019-04-23T01:30:10.032Z,5.60
2019-04-23T01:32:49.704Z,6.23
2019-04-23T01:35:15.476Z,5.97
2019-04-23T01:37:43.343Z,5.90
2019-04-23T01:40:12.091Z,5.70
2019-04-23T01:42:40.633Z,5.90
2019-04-23T01:45:13.343Z,6.20
2019-04-23T01:47:39.027Z,6.20
2019-04-23T01:50:14.391Z,6.30
2019-04-23T01:52:50.848Z,6.27
2019-04-23T01:55:17.085Z,6.07
2019-04-23T01:57:46.581Z,6.00
2019-04-23T02:00:20.285Z,6.10
2019-04-23T02:02:46.496Z,5.80
2019-04-23T02:05:15.731Z,5.40
2019-04-23T02:07:50.498Z,6.50
2019-04-23T02:12:47.661Z,6.17
2019-04-23T02:15:23.028Z,6.17
2019-04-23T02:17:38.761Z,6.00
2019-04-23T02:20:16.015Z,6.33
2019-04-23T02:23:13.293Z,6.33
2019-04-23T02:25:35.308Z,6.43
2019-04-23T02:28:03.292Z,5.87
2019-04-23T02:33:10.672Z,6.10
2019-04-23T02:35:42.727Z,5.80
2019-04-23T02:40:38.131Z,6.57
2019-04-23T02:45:39.666Z,6.83
2019-04-23T02:48:19.056Z,5.97
2019-04-23T02:53:06.602Z,6.63
2019-04-23T02:55:38.964Z,6.60
2019-04-23T02:58:01.200Z,6.77
2019-04-23T03:00:52.702Z,6.43
2019-04-23T03:03:05.901Z,6.53
2019-04-23T03:05:40.230Z,6.23
2019-04-23T03:08:00.651Z,6.03
2019-04-23T03:10:31.305Z,6.47
2019-04-23T03:13:09.827Z,6.10
2019-04-23T03:18:25.858Z,6.70
2019-04-23T03:21:05.741Z,6.00
2019-04-23T03:23:44.282Z,6.13
2019-04-23T03:38:48.741Z,6.33
2019-04-23T03:41:23.523Z,6.63
2019-04-23T03:51:17.196Z,6.60
2019-04-23T03:53:52.289Z,6.30
2019-04-23T04:01:23.175Z,6.23
2019-04-23T04:04:12.494Z,6.50
2019-04-23T04:06:24.461Z,6.57
2019-04-23T04:08:58.514Z,6.27
2019-04-23T04:14:01.189Z,6.47
2019-04-23T04:16:39.013Z,6.67
2019-04-23T04:21:28.009Z,6.53
2019-04-23T04:23:57.650Z,6.47
2019-04-23T04:26:20.832Z,6.40
2019-04-23T04:28:54.901Z,6.50
2019-04-23T04:31:21.038Z,6.00
2019-04-23T04:41:25.782Z,6.80
2019-04-23T04:46:35.067Z,6.63
2019-04-23T04:51:32.748Z,6.27
2019-04-23T04:54:02.657Z,6.27
2019-04-23T04:56:40.458Z,6.90
2019-04-23T04:58:56.462Z,6.17
2019-04-23T05:03:45.875Z,6.30
2019-04-23T05:06:31.611Z,7.07
2019-04-23T05:08:56.598Z,6.53
2019-04-23T05:11:26.729Z,6.57
2019-04-23T05:13:49.812Z,6.30
2019-04-23T05:16:29.260Z,6.53
2019-04-23T05:19:02.277Z,6.53
2019-04-23T05:21:26.920Z,6.80
2019-04-23T05:24:01.204Z,5.93
2019-04-23T05:26:25.177Z,6.50
2019-04-23T05:29:00.173Z,6.60
2019-04-23T05:31:23.481Z,6.57
2019-04-23T05:34:01.464Z,6.87
2019-04-23T05:36:43.414Z,6.63
2019-04-23T05:39:01.250Z,6.43
2019-04-23T05:46:42.915Z,6.60
2019-04-23T05:49:04.545Z,6.63
2019-04-23T05:51:28.215Z,6.73
2019-04-23T05:54:12.972Z,6.70
2019-04-23T05:56:27.488Z,6.70
2019-04-23T05:58:58.097Z,6.47
2019-04-23T06:01:49.856Z,7.33
2019-04-23T06:06:43.155Z,6.60
2019-04-23T06:09:00.701Z,6.40
2019-04-23T06:11:39.532Z,6.67
2019-04-23T06:16:36.089Z,6.90
2019-04-23T06:21:47.856Z,6.07
2019-04-23T06:24:09.841Z,6.67
2019-04-23T06:26:42.922Z,7.23
2019-04-23T06:29:10.307Z,7.13
2019-04-23T06:31:38.020Z,6.87
2019-04-23T06:34:10.861Z,6.40
2019-04-23T06:36:34.339Z,6.20
2019-04-23T06:41:41.701Z,6.63
2019-04-23T06:44:14.493Z,6.97
2019-04-23T06:46:43.431Z,6.23
2019-04-23T06:49:09.426Z,6.60
2019-04-23T06:51:46.595Z,7.27
2019-04-23T06:54:13.670Z,6.47
2019-04-23T06:56:43.452Z,6.83
2019-04-23T06:59:14.133Z,6.27
2019-04-23T07:01:46.359Z,7.10
2019-04-23T07:04:14.302Z,6.73
2019-04-23T07:07:13.638Z,6.67
2019-04-23T07:09:10.787Z,6.77
2019-04-23T07:11:40.273Z,6.20
2019-04-23T07:14:02.577Z,6.70
2019-04-23T07:16:45.139Z,7.27
2019-04-23T07:19:19.803Z,6.60
2019-04-23T07:21:33.485Z,6.93
2019-04-23T07:24:11.278Z,7.43
2019-04-23T07:26:40.762Z,7.30
2019-04-23T07:34:25.950Z,7.00
2019-04-23T07:36:41.149Z,6.57
2019-04-23T07:39:39.226Z,6.57
2019-04-23T07:44:42.407Z,6.70
2019-04-23T07:49:49.104Z,6.63
2019-04-23T07:52:15.048Z,6.90
2019-04-23T07:54:44.255Z,7.27
2019-04-23T07:59:51.604Z,7.13
2019-04-23T08:02:19.375Z,6.90
2019-04-23T08:04:57.956Z,7.03
2019-04-23T08:07:20.027Z,6.83
2019-04-23T08:09:49.814Z,6.70
2019-04-23T08:12:25.090Z,6.87
2019-04-23T08:14:53.549Z,6.87
2019-04-23T08:17:20.922Z,6.40
2019-04-23T08:22:25.941Z,6.70
2019-04-23T08:25:03.288Z,6.50
2019-04-23T08:27:28.125Z,7.10
2019-04-23T08:30:00.196Z,6.93
2019-04-23T08:32:21.601Z,6.63
2019-04-23T08:35:03.063Z,6.87
2019-04-23T08:37:47.917Z,6.90
2019-04-23T08:40:02.608Z,6.53
2019-04-23T08:42:46.872Z,7.20
2019-04-23T08:48:04.157Z,6.90
2019-04-23T08:50:34.045Z,6.93
2019-04-23T08:53:03.733Z,7.00
2019-04-23T08:55:34.038Z,7.10
2019-04-23T08:58:00.244Z,7.57
2019-04-23T09:00:33.365Z,7.63
2019-04-23T09:03:06.146Z,6.97
2019-04-23T09:05:41.846Z,7.50
2019-04-23T09:08:07.195Z,7.53
2019-04-23T09:10:35.597Z,7.20
2019-04-23T09:13:27.106Z,6.50
2019-04-23T09:15:39.058Z,6.90
2019-04-23T09:18:06.310Z,6.73
2019-04-23T09:20:41.127Z,6.60
2019-04-23T09:23:01.926Z,6.50
2019-04-23T09:25:40.725Z,6.33
2019-04-23T09:28:13.750Z,7.00
2019-04-23T09:30:38.866Z,5.70
2019-04-23T09:33:36.236Z,6.33
2019-04-23T09:36:13.684Z,6.60
2019-04-23T09:39:00.346Z,6.50
2019-04-23T09:44:40.017Z,6.33
2019-04-23T09:46:53.197Z,7.23
2019-04-23T09:49:20.127Z,6.73
2019-04-23T09:51:53.957Z,7.20
2019-04-23T09:56:49.444Z,6.23
2019-04-23T09:59:39.088Z,7.20
2019-04-23T10:01:48.323Z,6.00
2019-04-23T10:04:08.661Z,6.90
2019-04-23T10:06:30.898Z,6.43
2019-04-23T10:08:58.668Z,7.13
2019-04-23T10:11:26.461Z,6.60
2019-04-23T10:13:56.747Z,7.13
2019-04-23T10:16:27.989Z,7.10
2019-04-23T10:18:57.262Z,6.50
2019-04-23T10:21:25.750Z,6.20
2019-04-23T10:23:55.072Z,6.67
2019-04-23T10:26:24.047Z,6.90
2019-04-23T10:28:55.926Z,6.80
2019-04-23T10:31:25.205Z,6.90
2019-04-23T10:33:53.846Z,6.60
2019-04-23T10:36:27.200Z,6.63
2019-04-23T10:39:00.668Z,6.20
2019-04-23T10:41:24.251Z,7.13
2019-04-23T10:43:56.679Z,7.03
2019-04-23T10:46:53.131Z,6.63
2019-04-23T10:49:53.288Z,6.70
2019-04-23T10:54:41.544Z,6.80
2019-04-23T10:57:09.243Z,6.80
2019-04-23T10:59:40.401Z,6.93
2019-04-23T11:02:28.935Z,6.67
2019-04-23T11:07:28.672Z,7.00
2019-04-23T11:12:32.935Z,6.90
2019-04-23T11:14:58.496Z,6.70
2019-04-23T11:17:35.530Z,6.73
2019-04-23T11:20:01.382Z,6.93
2019-04-23T11:22:42.286Z,6.57
2019-04-23T11:27:32.618Z,6.47
2019-04-23T11:30:05.684Z,5.83
2019-04-23T11:35:15.792Z,5.83
2019-04-23T11:37:54.110Z,6.00
2019-04-23T11:42:32.732Z,5.63
2019-04-23T11:44:56.723Z,5.77
2019-04-23T11:48:14.329Z,5.90
2019-04-23T11:52:36.427Z,5.47
2019-04-23T11:55:03.161Z,5.23
2019-04-23T11:57:52.002Z,5.30
2019-04-23T12:00:01.582Z,4.87
2019-04-23T12:02:41.732Z,5.50
2019-04-23T12:07:41.244Z,5.43
2019-04-23T12:10:30.002Z,5.33
2019-04-23T12:12:49.515Z,5.40
2019-04-23T12:15:25.390Z,5.50
2019-04-23T12:17:53.889Z,4.97
2019-04-23T12:20:28.617Z,5.20
2019-04-23T12:27:44.166Z,4.70
2019-04-23T12:37:56.095Z,5.10
2019-04-23T12:40:25.797Z,4.70
2019-04-23T12:43:04.939Z,4.87
2019-04-23T12:48:15.618Z,4.80
2019-04-23T12:50:44.951Z,4.73
2019-04-23T12:55:40.345Z,5.37
2019-04-23T12:57:50.759Z,4.90
2019-04-23T13:00:34.027Z,5.00
2019-04-23T13:02:57.128Z,5.10
2019-04-23T13:05:28.891Z,5.10
2019-04-23T13:10:41.807Z,4.70
2019-04-23T13:15:40.822Z,5.00
2019-04-23T13:18:03.476Z,4.77
2019-04-23T13:20:27.590Z,5.37
2019-04-23T13:23:03.181Z,5.37
2019-04-23T13:25:36.721Z,4.60
2019-04-23T13:28:08.353Z,5.33
2019-04-23T13:36:01.090Z,4.90
2019-04-23T13:38:15.783Z,4.73
2019-04-23T13:40:46.378Z,4.30
2019-04-23T13:43:24.020Z,3.90
2019-04-23T13:48:10.844Z,4.60
2019-04-23T13:50:49.956Z,4.83
2019-04-23T13:53:28.531Z,4.90
2019-04-23T13:55:42.738Z,4.67
2019-04-23T13:59:26.419Z,5.37
2019-04-23T14:03:28.642Z,4.97
2019-04-23T14:05:54.705Z,4.60
2019-04-23T14:08:38.479Z,4.97
2019-04-23T14:10:58.262Z,4.90
2019-04-23T14:13:42.372Z,5.03
2019-04-23T14:21:17.183Z,4.97
2019-04-23T14:23:57.675Z,4.77
2019-04-23T14:31:04.694Z,4.60
2019-04-23T14:33:46.947Z,4.50
2019-04-23T14:36:07.798Z,4.70
2019-04-23T14:38:41.018Z,5.33
2019-04-23T14:48:46.245Z,4.57
2019-04-23T14:51:20.290Z,4.37
2019-04-23T14:53:39.681Z,4.97
2019-04-23T14:58:51.289Z,4.20
2019-04-23T15:06:20.156Z,4.33
2019-04-23T15:08:54.360Z,4.60
2019-04-23T15:13:45.251Z,5.03
2019-04-23T15:16:16.698Z,4.97
2019-04-23T15:24:00.234Z,3.73
2019-04-23T15:28:34.010Z,3.70
2019-04-23T15:31:28.351Z,4.20
2019-04-23T15:34:13.537Z,4.00
2019-04-23T15:36:41.567Z,4.63
2019-04-23T15:41:31.939Z,4.90
2019-04-23T15:44:05.602Z,4.67
2019-04-23T15:49:07.651Z,4.40
2019-04-23T15:51:40.872Z,4.47
2019-04-23T15:54:03.060Z,4.30
2019-04-23T15:59:21.012Z,4.63
2019-04-23T16:03:33.933Z,4.33
2019-04-23T16:06:04.779Z,4.73
2019-04-23T16:11:39.487Z,4.77
2019-04-23T16:14:16.775Z,5.03
2019-04-23T16:16:43.219Z,4.87
2019-04-23T16:19:16.719Z,5.10
2019-04-23T16:24:14.874Z,4.93
2019-04-23T16:26:47.434Z,4.53
2019-04-23T16:29:30.866Z,5.93
2019-04-23T16:31:39.742Z,4.93
2019-04-23T16:36:59.406Z,4.97
2019-04-23T16:39:25.125Z,4.60
2019-04-23T16:42:05.782Z,5.07
2019-04-23T16:44:40.415Z,4.50
2019-04-23T16:47:08.325Z,4.90
2019-04-23T16:52:01.462Z,4.93
2019-04-23T16:54:31.276Z,4.57
2019-04-23T17:00:02.879Z,4.40
2019-04-23T17:02:11.498Z,4.30
2019-04-23T17:04:31.168Z,4.53
2019-04-23T17:07:02.665Z,4.00
2019-04-23T17:09:42.673Z,3.77
2019-04-23T17:14:35.810Z,3.83
2019-04-23T17:16:58.235Z,4.10
2019-04-23T17:19:36.800Z,3.73
2019-04-23T17:22:03.851Z,4.20
2019-04-23T17:24:30.545Z,3.77
2019-04-23T17:27:16.827Z,3.97
2019-04-23T17:29:41.523Z,4.27
2019-04-23T17:32:05.553Z,4.17
2019-04-23T17:37:20.707Z,3.90
2019-04-23T17:39:49.074Z,4.07
2019-04-23T17:42:22.540Z,4.53
2019-04-23T17:47:28.564Z,3.87
2019-04-23T17:51:00.364Z,3.77
2019-04-23T17:52:28.112Z,3.90
2019-04-23T17:55:01.750Z,3.80
2019-04-23T17:57:29.650Z,3.97
2019-04-23T18:00:12.829Z,3.90
2019-04-23T18:02:49.963Z,4.00
2019-04-23T18:05:08.199Z,4.03
2019-04-23T18:10:25.166Z,4.07
2019-04-23T18:15:04.982Z,4.20
2019-04-23T18:17:49.266Z,3.97
2019-04-23T18:20:12.451Z,4.13
2019-04-23T18:25:17.125Z,4.43
2019-04-23T18:27:47.101Z,4.30
2019-04-23T18:30:17.751Z,4.37
2019-04-23T18:35:28.256Z,4.50
2019-04-23T18:37:56.494Z,4.57
2019-04-23T18:40:21.578Z,4.53
2019-04-23T18:43:02.567Z,4.47
2019-04-23T18:45:32.109Z,4.63
2019-04-23T18:48:01.138Z,4.30
2019-04-23T18:50:43.262Z,4.40
2019-04-23T18:53:02.919Z,5.07
2019-04-23T18:55:57.651Z,4.70
2019-04-23T18:57:57.621Z,4.37
2019-04-23T19:03:00.916Z,5.20
2019-04-23T19:05:39.562Z,4.77
2019-04-23T19:08:21.279Z,5.03
2019-04-23T19:10:57.798Z,5.17
2019-04-23T19:13:32.882Z,4.87
2019-04-23T19:15:45.597Z,4.57
2019-04-23T19:21:15.597Z,4.87
2019-04-23T19:23:47.550Z,4.90
2019-04-23T19:26:00.089Z,4.80
2019-04-23T19:28:41.191Z,5.40
2019-04-23T19:31:03.287Z,5.10
2019-04-23T19:36:17.462Z,5.70
2019-04-23T19:41:02.091Z,5.43
2019-04-23T19:48:42.169Z,5.43
2019-04-23T19:53:55.231Z,5.17
2019-04-23T20:03:48.612Z,5.37
2019-04-23T20:06:08.157Z,6.07
2019-04-23T20:11:07.921Z,5.60
2019-04-23T20:13:47.258Z,5.40
2019-04-23T20:16:11.000Z,5.20
2019-04-23T20:21:04.079Z,5.30
2019-04-23T20:29:01.991Z,5.70
2019-04-23T20:33:06.502Z,5.50
2019-04-23T20:34:24.412Z,5.67
2019-04-23T20:36:46.256Z,5.73
2019-04-23T20:39:17.620Z,5.90
2019-04-23T20:47:09.854Z,6.30
2019-04-23T20:49:42.363Z,6.00
2019-04-23T20:57:22.971Z,6.90
2019-04-23T21:00:03.602Z,6.57
2019-04-23T21:02:39.699Z,5.93
2019-04-23T21:05:06.734Z,6.00
2019-04-23T21:07:41.869Z,6.13
2019-04-23T21:10:08.871Z,6.17
2019-04-23T21:12:42.493Z,5.93
2019-04-23T21:15:06.472Z,6.23
2019-04-23T21:17:35.639Z,6.53
2019-04-23T21:20:08.178Z,6.70
2019-04-23T21:22:47.061Z,6.23
2019-04-23T21:25:00.279Z,5.80
2019-04-23T21:27:38.632Z,6.10
2019-04-23T21:30:03.556Z,6.30
2019-04-23T21:35:10.550Z,5.67
2019-04-23T21:37:32.032Z,6.30
2019-04-23T21:40:32.529Z,6.00
2019-04-23T21:42:48.759Z,6.20
2019-04-23T21:45:19.327Z,6.23
2019-04-23T21:47:51.663Z,6.63
2019-04-23T21:50:19.860Z,6.27
2019-04-23T21:52:39.685Z,5.70
2019-04-23T21:55:11.269Z,5.80
2019-04-23T21:57:53.601Z,5.70
2019-04-23T22:00:08.345Z,5.93
2019-04-23T22:03:03.640Z,5.70
2019-04-23T22:05:19.447Z,6.20
2019-04-23T22:07:51.812Z,5.77
2019-04-23T22:10:11.418Z,5.83
2019-04-23T22:12:56.176Z,5.90
2019-04-23T22:15:14.718Z,6.03
2019-04-23T22:17:45.979Z,6.33
2019-04-23T22:20:21.426Z,5.90
2019-04-23T22:22:59.977Z,5.83
2019-04-23T22:25:13.113Z,6.13
2019-04-23T22:27:47.774Z,5.80
2019-04-23T22:30:11.357Z,5.43
2019-04-23T22:35:13.647Z,6.10
2019-04-23T22:38:11.219Z,5.73
2019-04-23T22:40:10.212Z,5.17
2019-04-23T22:43:17.727Z,5.83
2019-04-23T22:45:18.283Z,5.87
2019-04-23T22:47:58.464Z,5.63
2019-04-23T22:50:19.090Z,5.47
2019-04-23T22:52:53.934Z,5.30
2019-04-23T22:55:15.484Z,5.50
2019-04-23T23:05:28.641Z,5.27
2019-04-23T23:10:27.896Z,5.30
2019-04-23T23:15:24.534Z,5.10
2019-04-23T23:18:07.348Z,5.30
2019-04-23T23:20:33.148Z,5.30
2019-04-23T23:23:06.455Z,5.00
2019-04-23T23:27:58.924Z,5.10
2019-04-23T23:30:33.760Z,4.60
2019-04-23T23:33:00.312Z,4.60
2019-04-23T23:35:45.390Z,4.60
2019-04-23T23:38:03.796Z,4.50
2019-04-23T23:40:29.098Z,4.70
2019-04-23T23:45:28.628Z,4.27
2019-04-23T23:47:59.353Z,3.90
2019-04-23T23:53:02.601Z,4.00
2019-04-23T23:55:27.354Z,4.10
2019-04-23T23:58:06.731Z,4.60
